Climbing Hill, Iowa
Current Conditions -  °F | °C
As of 1:52 PM on Saturday 20 Dec 2014 (Local Time) from KSUX Reporting Station
Haze Haze  
Wind Chill: 27°   Ceiling: 700
Heat Index: 34°   Visibility: 6mi
Dew Point: 30°   Wind: 8mph
Humidity: 85%   Direction: 170°S
Pressure: 30.06"   Gusts: NA
Location:  42.34°N, 96.08°W
Report Text: KSUX 201952Z 17007KT 6SM BR OVC007 01/M01 A3006 RMK AO2 SLP190 T00111011
Loading
Personal Weather Stations






























Interactive Weather Map New forecast layout! Learn more

10-Day Weather Forecast

Advertisements
Track Severe Weather on mobile